createdAt,value
2023-02-11T00:01:15.359Z,8.98
2023-02-11T00:03:42.035Z,7.65
2023-02-11T00:06:11.646Z,7.55
2023-02-11T00:08:39.335Z,9.07
2023-02-11T00:11:06.685Z,8.77
2023-02-11T00:13:33.634Z,8.27
2023-02-11T00:16:00.439Z,9.60
2023-02-11T00:18:28.159Z,7.78
2023-02-11T00:20:54.811Z,7.55
2023-02-11T00:23:21.453Z,7.60
2023-02-11T00:25:48.156Z,6.53
2023-02-11T00:28:15.032Z,7.75
2023-02-11T00:30:41.776Z,8.57
2023-02-11T00:33:08.591Z,7.85
2023-02-11T00:35:38.801Z,8.57
2023-02-11T00:38:05.627Z,8.10
2023-02-11T00:40:32.419Z,7.55
2023-02-11T00:42:59.050Z,7.15
2023-02-11T00:45:25.668Z,7.97
2023-02-11T00:47:52.320Z,6.28
2023-02-11T00:50:18.975Z,7.88
2023-02-11T00:52:45.625Z,8.18
2023-02-11T00:55:12.275Z,8.95
2023-02-11T00:57:38.921Z,8.43
2023-02-11T01:00:06.895Z,8.45
2023-02-11T01:02:33.907Z,8.35
2023-02-11T01:05:00.973Z,7.40
2023-02-11T01:07:28.629Z,8.90
2023-02-11T01:09:55.489Z,8.55
2023-02-11T01:12:23.210Z,7.18
2023-02-11T01:14:50.162Z,6.82
2023-02-11T01:17:17.139Z,8.50
2023-02-11T01:19:43.890Z,8.10
2023-02-11T01:22:10.593Z,8.07
2023-02-11T01:24:37.376Z,9.18
2023-02-11T01:27:04.275Z,9.27
2023-02-11T01:29:30.947Z,7.90
2023-02-11T01:32:02.251Z,6.85
2023-02-11T01:34:28.970Z,9.02
2023-02-11T01:36:59.667Z,8.85
2023-02-11T01:39:27.629Z,8.27
2023-02-11T01:41:54.540Z,8.52
2023-02-11T01:44:24.132Z,8.93
2023-02-11T01:46:51.019Z,8.68
2023-02-11T01:49:26.652Z,6.72
2023-02-11T01:52:06.937Z,6.55
2023-02-11T01:54:56.450Z,7.32
2023-02-11T01:57:28.289Z,8.73
2023-02-11T02:00:20.860Z,8.27
2023-02-11T02:03:11.017Z,8.68
2023-02-11T02:05:47.433Z,7.00
2023-02-11T02:08:32.041Z,8.18
2023-02-11T02:11:01.061Z,8.68
2023-02-11T02:13:30.275Z,7.18
2023-02-11T02:16:00.507Z,9.85
2023-02-11T02:18:54.011Z,10.23
2023-02-11T02:22:10.910Z,6.63
2023-02-11T02:24:37.447Z,9.40
2023-02-11T02:27:34.236Z,8.65
2023-02-11T02:30:12.757Z,10.70
2023-02-11T02:32:48.362Z,7.72
2023-02-11T02:35:41.059Z,7.82
2023-02-11T02:38:20.114Z,9.82
2023-02-11T02:41:02.709Z,6.35
2023-02-11T02:43:30.377Z,7.68
2023-02-11T02:46:17.125Z,9.27
2023-02-11T02:48:45.002Z,7.45
2023-02-11T02:51:14.669Z,8.40
2023-02-11T02:54:13.628Z,8.27
2023-02-11T02:57:09.298Z,8.25
2023-02-11T03:00:03.177Z,7.90
2023-02-11T03:02:37.704Z,6.95
2023-02-11T03:05:09.822Z,9.10
2023-02-11T03:08:12.616Z,7.75
2023-02-11T03:10:45.203Z,7.20
2023-02-11T03:13:13.602Z,9.48
2023-02-11T03:15:43.877Z,8.35
2023-02-11T03:18:15.492Z,7.50
2023-02-11T03:20:47.724Z,6.93
2023-02-11T03:23:30.946Z,6.55
2023-02-11T03:26:06.667Z,6.82
2023-02-11T03:28:41.857Z,7.63
2023-02-11T03:31:20.470Z,7.97
2023-02-11T03:34:07.341Z,7.68
2023-02-11T03:36:45.971Z,7.22
2023-02-11T03:39:17.827Z,6.40
2023-02-11T03:41:46.295Z,7.53
2023-02-11T03:44:15.720Z,5.72
2023-02-11T03:46:48.032Z,7.85
2023-02-11T03:49:18.219Z,7.18
2023-02-11T03:51:45.658Z,8.38
2023-02-11T03:54:18.604Z,7.40
2023-02-11T03:56:55.521Z,7.68
2023-02-11T03:59:23.021Z,6.03
2023-02-11T04:01:49.702Z,7.53
2023-02-11T04:04:17.156Z,9.10
2023-02-11T04:06:44.107Z,8.48
2023-02-11T04:09:11.580Z,6.78
2023-02-11T04:11:38.408Z,6.53
2023-02-11T04:14:05.038Z,7.50
2023-02-11T04:16:31.806Z,7.82
2023-02-11T04:18:58.903Z,7.72
2023-02-11T04:21:25.544Z,7.50
2023-02-11T04:23:52.169Z,5.82
2023-02-11T04:26:18.940Z,7.10
2023-02-11T04:28:45.578Z,6.65
2023-02-11T04:31:13.001Z,7.90
2023-02-11T04:33:39.822Z,8.05
2023-02-11T04:36:06.818Z,6.20
2023-02-11T04:38:33.490Z,5.38
2023-02-11T04:41:00.772Z,5.97
2023-02-11T04:43:27.405Z,5.80
2023-02-11T04:45:58.769Z,7.07
2023-02-11T04:48:25.992Z,5.90
2023-02-11T04:50:52.902Z,7.03
2023-02-11T04:53:19.827Z,6.03
2023-02-11T04:55:50.721Z,5.50
2023-02-11T04:58:19.252Z,6.20
2023-02-11T05:00:46.490Z,6.63
2023-02-11T05:03:13.979Z,6.60
2023-02-11T05:05:42.775Z,6.32
2023-02-11T05:08:12.851Z,6.20
2023-02-11T05:10:40.010Z,6.20
2023-02-11T05:13:06.663Z,7.22
2023-02-11T05:15:35.846Z,7.00
2023-02-11T05:18:02.435Z,5.47
2023-02-11T05:20:29.138Z,5.10
2023-02-11T05:22:55.959Z,5.40
2023-02-11T05:25:22.626Z,6.13
2023-02-11T05:27:49.433Z,7.10
2023-02-11T05:30:16.151Z,6.18
2023-02-11T05:32:42.861Z,6.03
2023-02-11T05:35:09.580Z,6.55
2023-02-11T05:37:36.800Z,5.35
2023-02-11T05:40:04.413Z,6.72
2023-02-11T05:42:31.044Z,6.05
2023-02-11T05:44:57.818Z,5.60
2023-02-11T05:47:24.590Z,6.25
2023-02-11T05:49:51.973Z,6.28
2023-02-11T05:52:18.578Z,6.72
2023-02-11T05:54:45.334Z,5.72
2023-02-11T05:57:12.122Z,5.22
2023-02-11T05:59:39.402Z,6.68
2023-02-11T06:02:07.952Z,8.05
2023-02-11T06:04:35.662Z,5.07
2023-02-11T06:07:02.803Z,5.68
2023-02-11T06:09:29.464Z,5.50
2023-02-11T06:11:56.137Z,7.40
2023-02-11T06:14:24.070Z,4.93
2023-02-11T06:16:50.746Z,5.43
2023-02-11T06:19:17.385Z,5.38
2023-02-11T06:21:44.692Z,7.32
2023-02-11T06:24:12.399Z,5.68
2023-02-11T06:26:39.212Z,4.97
2023-02-11T06:29:06.168Z,6.50
2023-02-11T06:31:32.891Z,6.47
2023-02-11T06:33:59.710Z,5.85
2023-02-11T06:36:26.394Z,5.95
2023-02-11T06:38:53.118Z,7.05
2023-02-11T06:41:20.585Z,6.35
2023-02-11T06:43:47.721Z,6.18
2023-02-11T06:46:14.875Z,6.97
2023-02-11T06:48:44.462Z,4.78
2023-02-11T06:51:13.537Z,6.70
2023-02-11T06:53:43.848Z,6.22
2023-02-11T06:56:13.004Z,6.40
2023-02-11T06:58:39.826Z,7.57
2023-02-11T07:01:11.036Z,7.38
2023-02-11T07:03:39.774Z,7.38
2023-02-11T07:06:08.293Z,5.95
2023-02-11T07:08:36.727Z,6.18
2023-02-11T07:11:15.273Z,6.38
2023-02-11T07:13:42.374Z,6.43
2023-02-11T07:16:13.044Z,6.45
2023-02-11T07:18:40.086Z,8.20
2023-02-11T07:21:08.846Z,6.07
2023-02-11T07:23:36.509Z,5.00
2023-02-11T07:26:09.730Z,7.05
2023-02-11T07:28:37.973Z,7.55
2023-02-11T07:31:18.846Z,6.65
2023-02-11T07:33:48.451Z,5.50
2023-02-11T07:36:16.542Z,7.32
2023-02-11T07:38:44.102Z,7.18
2023-02-11T07:41:13.391Z,7.93
2023-02-11T07:43:40.714Z,7.20
2023-02-11T07:46:10.844Z,7.40
2023-02-11T07:48:37.522Z,8.30
2023-02-11T07:51:13.061Z,7.57
2023-02-11T07:53:40.050Z,6.00
2023-02-11T07:56:08.541Z,7.07
2023-02-11T07:58:35.657Z,6.88
2023-02-11T08:01:04.262Z,6.35
2023-02-11T08:03:30.917Z,8.20
2023-02-11T08:05:58.048Z,7.45
2023-02-11T08:08:28.101Z,6.78
2023-02-11T08:10:54.685Z,5.65
2023-02-11T08:13:21.481Z,6.25
2023-02-11T08:15:48.434Z,7.35
2023-02-11T08:18:15.390Z,6.80
2023-02-11T08:20:42.042Z,6.55
2023-02-11T08:23:08.669Z,6.05
2023-02-11T08:25:35.347Z,7.88
2023-02-11T08:28:02.056Z,6.10
2023-02-11T08:30:31.667Z,8.27
2023-02-11T08:32:58.290Z,7.70
2023-02-11T08:35:26.196Z,6.97
2023-02-11T08:37:53.392Z,6.70
2023-02-11T08:40:20.556Z,6.47
2023-02-11T08:42:47.287Z,6.63
2023-02-11T08:45:13.953Z,5.75
2023-02-11T08:47:40.559Z,5.40
2023-02-11T08:50:07.354Z,5.75
2023-02-11T08:52:34.082Z,4.80
2023-02-11T08:55:00.682Z,5.28
2023-02-11T08:57:27.745Z,5.55
2023-02-11T08:59:54.543Z,7.00
2023-02-11T09:02:21.241Z,5.85
2023-02-11T09:04:47.872Z,5.88
2023-02-11T09:07:15.000Z,3.92
2023-02-11T09:09:43.096Z,6.45
2023-02-11T09:12:09.779Z,5.97
2023-02-11T09:14:37.337Z,5.85
2023-02-11T09:17:04.041Z,5.25
2023-02-11T09:19:30.892Z,4.63
2023-02-11T09:21:57.738Z,6.05
2023-02-11T09:24:24.325Z,5.43
2023-02-11T09:26:51.113Z,5.30
2023-02-11T09:29:17.829Z,5.18
2023-02-11T09:31:44.746Z,4.68
2023-02-11T09:34:12.719Z,4.45
2023-02-11T09:36:41.402Z,3.50
2023-02-11T09:39:19.926Z,4.25
2023-02-11T09:42:09.819Z,5.05
2023-02-11T09:44:37.831Z,4.22
2023-02-11T09:47:27.031Z,4.10
2023-02-11T09:50:04.737Z,4.30
2023-02-11T09:52:44.072Z,3.80
2023-02-11T09:55:28.562Z,5.68
2023-02-11T09:57:56.953Z,5.68
2023-02-11T10:00:53.204Z,5.72
2023-02-11T10:04:00.333Z,5.82
2023-02-11T10:06:36.040Z,4.95
2023-02-11T10:09:33.501Z,4.78
2023-02-11T10:12:34.352Z,5.80
2023-02-11T10:15:12.865Z,4.85
2023-02-11T10:18:23.603Z,3.85
2023-02-11T10:21:22.633Z,4.40
2023-02-11T10:23:54.558Z,3.78
2023-02-11T10:26:22.201Z,4.63
2023-02-11T10:28:53.210Z,4.55
2023-02-11T10:31:33.702Z,4.78
2023-02-11T10:34:04.844Z,3.60
2023-02-11T10:36:35.136Z,4.30
2023-02-11T10:39:19.613Z,3.17
2023-02-11T10:42:09.051Z,3.88
2023-02-11T10:44:44.134Z,3.22
2023-02-11T10:47:22.601Z,3.45
2023-02-11T10:49:49.393Z,3.17
2023-02-11T10:52:26.117Z,2.83
2023-02-11T10:54:57.137Z,2.90
2023-02-11T10:57:29.905Z,4.20
2023-02-11T11:00:00.231Z,3.65
2023-02-11T11:02:35.793Z,3.33
2023-02-11T11:05:33.517Z,3.40
2023-02-11T11:08:04.591Z,3.17
2023-02-11T11:10:45.309Z,3.90
2023-02-11T11:13:29.141Z,2.72
2023-02-11T11:16:14.010Z,3.33
2023-02-11T11:18:43.809Z,3.30
2023-02-11T11:21:19.286Z,3.47
2023-02-11T11:23:58.324Z,3.28
2023-02-11T11:26:28.696Z,2.75
2023-02-11T11:28:58.335Z,3.33
2023-02-11T11:31:27.321Z,2.58
2023-02-11T11:33:56.862Z,3.45
2023-02-11T11:36:34.936Z,2.55
2023-02-11T11:39:15.380Z,3.05
2023-02-11T11:41:53.678Z,2.67
2023-02-11T11:44:25.400Z,2.95
2023-02-11T11:47:10.770Z,2.75
2023-02-11T11:49:43.908Z,2.10
2023-02-11T11:52:18.452Z,2.65
2023-02-11T11:54:50.530Z,2.47
2023-02-11T11:57:21.717Z,3.47
2023-02-11T11:59:48.381Z,2.53
2023-02-11T12:02:41.203Z,2.85
2023-02-11T12:05:20.643Z,2.88
2023-02-11T12:08:08.463Z,3.25
2023-02-11T12:10:53.440Z,2.40
2023-02-11T12:13:41.987Z,1.90
2023-02-11T12:16:17.795Z,2.38
2023-02-11T12:19:02.403Z,2.38
2023-02-11T12:21:42.828Z,2.35
2023-02-11T12:24:37.666Z,3.10
2023-02-11T12:27:14.344Z,2.42
2023-02-11T12:30:03.943Z,1.90
2023-02-11T12:32:49.502Z,3.13
2023-02-11T12:35:28.963Z,3.20
2023-02-11T12:38:25.826Z,2.88
2023-02-11T12:41:13.605Z,2.72
2023-02-11T12:43:43.249Z,2.95
2023-02-11T12:46:34.340Z,2.35
2023-02-11T12:49:19.467Z,2.08
2023-02-11T12:52:12.849Z,3.92
2023-02-11T12:55:08.365Z,1.83
2023-02-11T12:57:37.923Z,2.78
2023-02-11T13:00:19.504Z,2.38
2023-02-11T13:03:12.853Z,2.67
2023-02-11T13:05:51.068Z,2.30
2023-02-11T13:08:46.636Z,2.78
2023-02-11T13:11:38.498Z,3.17
2023-02-11T13:14:35.127Z,3.30
2023-02-11T13:17:06.870Z,2.95
2023-02-11T13:19:44.499Z,2.83
2023-02-11T13:22:20.986Z,2.67
2023-02-11T13:25:04.084Z,1.95
2023-02-11T13:27:40.837Z,2.10
2023-02-11T13:30:32.809Z,2.38
2023-02-11T13:33:02.128Z,2.83
2023-02-11T13:35:35.156Z,2.70
2023-02-11T13:38:14.801Z,2.10
2023-02-11T13:40:41.454Z,2.78
2023-02-11T13:43:21.556Z,2.42
2023-02-11T13:45:50.115Z,2.42
2023-02-11T13:48:30.851Z,2.70
2023-02-11T13:51:11.255Z,2.97
2023-02-11T13:53:53.697Z,2.60
2023-02-11T13:56:32.538Z,1.95
2023-02-11T13:59:02.246Z,2.08
2023-02-11T14:02:24.396Z,1.90
2023-02-11T14:05:48.932Z,1.70
2023-02-11T14:08:42.996Z,1.27
2023-02-11T14:11:36.909Z,1.60
2023-02-11T14:14:14.681Z,2.17
2023-02-11T14:17:02.508Z,1.73
2023-02-11T14:19:35.049Z,2.40
2023-02-11T14:22:06.777Z,2.88
2023-02-11T14:24:33.259Z,2.33
2023-02-11T14:27:38.224Z,2.97
2023-02-11T14:30:12.442Z,2.47
2023-02-11T14:33:19.249Z,2.90
2023-02-11T14:36:13.540Z,3.33
2023-02-11T14:39:06.058Z,2.95
2023-02-11T14:41:40.298Z,3.30
2023-02-11T14:44:18.110Z,3.13
2023-02-11T14:46:50.166Z,2.88
2023-02-11T14:49:39.564Z,2.25
2023-02-11T14:52:14.114Z,3.28
2023-02-11T14:54:43.382Z,2.72
2023-02-11T14:57:19.290Z,3.28
2023-02-11T15:00:02.590Z,3.00
2023-02-11T15:02:35.485Z,2.38
2023-02-11T15:05:34.932Z,2.95
2023-02-11T15:08:03.829Z,3.80
2023-02-11T15:10:41.285Z,3.15
2023-02-11T15:13:08.685Z,2.03
2023-02-11T15:15:36.885Z,3.28
2023-02-11T15:18:05.352Z,2.70
2023-02-11T15:20:33.478Z,2.70
2023-02-11T15:23:03.717Z,4.15
2023-02-11T15:25:33.682Z,3.20
2023-02-11T15:28:00.792Z,2.90
2023-02-11T15:30:31.303Z,3.38
2023-02-11T15:33:00.752Z,3.10
2023-02-11T15:35:31.084Z,2.90
2023-02-11T15:37:58.775Z,3.50
2023-02-11T15:40:34.763Z,3.60
2023-02-11T15:43:07.199Z,3.33
2023-02-11T15:45:55.701Z,3.33
2023-02-11T15:48:41.949Z,3.28
2023-02-11T15:51:34.712Z,3.28
2023-02-11T15:54:16.528Z,3.65
2023-02-11T15:56:46.127Z,3.30
2023-02-11T15:59:20.413Z,4.30
2023-02-11T16:01:48.726Z,3.00
2023-02-11T16:04:28.616Z,3.60
2023-02-11T16:06:55.878Z,2.88
2023-02-11T16:09:37.901Z,3.22
2023-02-11T16:12:27.461Z,3.13
2023-02-11T16:14:55.909Z,3.17
2023-02-11T16:17:26.783Z,2.50
2023-02-11T16:19:54.067Z,3.38
2023-02-11T16:22:27.380Z,2.40
2023-02-11T16:24:56.677Z,3.05
2023-02-11T16:27:24.798Z,3.35
2023-02-11T16:29:52.483Z,3.28
2023-02-11T16:32:27.837Z,5.10
2023-02-11T16:34:58.006Z,2.63
2023-02-11T16:37:25.479Z,2.90
2023-02-11T16:39:58.180Z,3.10
2023-02-11T16:42:25.564Z,3.63
2023-02-11T16:44:52.286Z,4.80
2023-02-11T16:47:27.646Z,3.97
2023-02-11T16:49:56.106Z,3.58
2023-02-11T16:52:24.471Z,5.53
2023-02-11T16:54:51.396Z,5.95
2023-02-11T16:57:28.077Z,4.93
2023-02-11T16:59:56.314Z,5.75
2023-02-11T17:02:26.175Z,6.05
2023-02-11T17:04:54.344Z,6.53
2023-02-11T17:07:21.254Z,4.47
2023-02-11T17:09:48.054Z,4.75
2023-02-11T17:12:14.776Z,4.72
2023-02-11T17:14:41.594Z,4.78
2023-02-11T17:17:10.163Z,4.07
2023-02-11T17:19:37.387Z,5.70
2023-02-11T17:22:03.959Z,5.20
2023-02-11T17:24:30.822Z,4.55
2023-02-11T17:26:57.589Z,4.88
2023-02-11T17:29:25.318Z,5.53
2023-02-11T17:31:52.916Z,4.85
2023-02-11T17:34:21.273Z,4.10
2023-02-11T17:36:47.971Z,5.93
2023-02-11T17:39:15.193Z,5.32
2023-02-11T17:41:42.130Z,3.72
2023-02-11T17:44:10.676Z,5.90
2023-02-11T17:46:37.317Z,5.93
2023-02-11T17:49:04.540Z,5.60
2023-02-11T17:51:33.632Z,5.55
2023-02-11T17:54:03.222Z,4.68
2023-02-11T17:56:32.955Z,4.88
2023-02-11T17:58:59.601Z,6.00
2023-02-11T18:01:33.486Z,4.82
2023-02-11T18:04:00.990Z,3.97
2023-02-11T18:06:29.345Z,4.60
2023-02-11T18:08:59.741Z,4.45
2023-02-11T18:11:27.812Z,4.78
2023-02-11T18:13:55.071Z,4.63
2023-02-11T18:16:23.327Z,5.53
2023-02-11T18:18:50.603Z,5.93
2023-02-11T18:21:19.999Z,6.28
2023-02-11T18:23:47.160Z,7.25
2023-02-11T18:26:15.121Z,4.95
2023-02-11T18:28:45.313Z,4.47
2023-02-11T18:31:14.154Z,4.55
2023-02-11T18:33:42.212Z,4.80
2023-02-11T18:36:11.316Z,6.25
2023-02-11T18:38:38.331Z,5.20
2023-02-11T18:41:05.599Z,5.18
2023-02-11T18:43:33.621Z,4.55
2023-02-11T18:46:02.146Z,4.25
2023-02-11T18:48:29.350Z,5.97
2023-02-11T18:50:56.258Z,2.55
2023-02-11T18:53:24.735Z,4.18
2023-02-11T18:55:52.791Z,4.15
2023-02-11T18:58:21.375Z,4.05
2023-02-11T19:00:49.316Z,3.85
2023-02-11T19:03:16.544Z,4.70
2023-02-11T19:05:47.660Z,4.22
2023-02-11T19:08:15.113Z,5.13
2023-02-11T19:10:43.568Z,5.07
2023-02-11T19:13:10.670Z,4.95
2023-02-11T19:15:47.359Z,4.75
2023-02-11T19:18:15.145Z,4.38
2023-02-11T19:20:43.428Z,4.50
2023-02-11T19:23:10.858Z,4.15
2023-02-11T19:25:37.962Z,4.13
2023-02-11T19:28:04.833Z,5.18
2023-02-11T19:30:31.842Z,4.40
2023-02-11T19:32:58.745Z,3.75
2023-02-11T19:35:25.622Z,4.78
2023-02-11T19:37:52.426Z,3.60
2023-02-11T19:40:21.249Z,3.97
2023-02-11T19:42:48.152Z,4.25
2023-02-11T19:45:15.176Z,4.43
2023-02-11T19:47:41.959Z,5.97
2023-02-11T19:50:09.277Z,5.13
2023-02-11T19:52:38.514Z,5.43
2023-02-11T19:55:05.756Z,5.15
2023-02-11T19:57:32.822Z,4.20
2023-02-11T20:00:00.177Z,5.35
2023-02-11T20:02:26.905Z,5.40
2023-02-11T20:04:53.744Z,5.07
2023-02-11T20:07:20.418Z,4.90
2023-02-11T20:09:47.277Z,4.50
2023-02-11T20:12:13.980Z,4.90
2023-02-11T20:14:40.709Z,4.70
2023-02-11T20:17:07.477Z,5.43
2023-02-11T20:19:34.060Z,5.15
2023-02-11T20:22:00.608Z,5.15
2023-02-11T20:24:27.431Z,4.97
2023-02-11T20:26:57.299Z,6.63
2023-02-11T20:29:25.302Z,5.85
2023-02-11T20:31:52.634Z,5.03
2023-02-11T20:34:22.035Z,4.03
2023-02-11T20:36:52.328Z,5.55
2023-02-11T20:39:21.599Z,5.32
2023-02-11T20:41:49.337Z,5.05
2023-02-11T20:44:16.025Z,6.25
2023-02-11T20:46:48.429Z,4.90
2023-02-11T20:49:18.745Z,6.28
2023-02-11T20:51:45.946Z,4.70
2023-02-11T20:54:18.463Z,4.53
2023-02-11T20:56:47.987Z,4.57
2023-02-11T20:59:16.819Z,6.05
2023-02-11T21:01:47.404Z,4.85
2023-02-11T21:04:15.461Z,5.60
2023-02-11T21:06:48.624Z,4.90
2023-02-11T21:09:19.599Z,7.10
2023-02-11T21:11:46.288Z,5.35
2023-02-11T21:14:13.221Z,5.65
2023-02-11T21:16:40.525Z,6.30
2023-02-11T21:19:07.526Z,6.43
2023-02-11T21:21:36.565Z,5.88
2023-02-11T21:24:03.874Z,6.22
2023-02-11T21:26:30.500Z,6.50
2023-02-11T21:28:57.514Z,4.78
2023-02-11T21:31:32.665Z,5.65
2023-02-11T21:33:59.685Z,5.65
2023-02-11T21:36:28.227Z,6.88
2023-02-11T21:38:54.945Z,5.15
2023-02-11T21:41:22.553Z,5.03
2023-02-11T21:43:50.229Z,5.00
2023-02-11T21:46:18.835Z,4.93
2023-02-11T21:48:46.102Z,4.20
2023-02-11T21:51:22.379Z,4.90
2023-02-11T21:53:53.667Z,4.65
2023-02-11T21:56:20.481Z,5.07
2023-02-11T21:58:47.234Z,4.90
2023-02-11T22:01:19.902Z,5.28
2023-02-11T22:03:47.392Z,5.30
2023-02-11T22:06:18.605Z,4.15
2023-02-11T22:08:45.496Z,5.30
2023-02-11T22:11:13.061Z,5.00
2023-02-11T22:13:40.856Z,4.05
2023-02-11T22:16:13.415Z,4.82
2023-02-11T22:18:40.654Z,4.32
2023-02-11T22:21:13.015Z,5.32
2023-02-11T22:23:40.547Z,3.95
2023-02-11T22:26:09.938Z,4.45
2023-02-11T22:28:39.059Z,5.03
2023-02-11T22:31:06.114Z,5.75
2023-02-11T22:33:33.417Z,5.65
2023-02-11T22:36:01.618Z,4.95
2023-02-11T22:38:29.895Z,6.18
2023-02-11T22:40:57.587Z,4.43
2023-02-11T22:43:24.504Z,4.43
2023-02-11T22:45:51.415Z,5.22
2023-02-11T22:48:21.381Z,6.03
2023-02-11T22:50:49.640Z,5.68
2023-02-11T22:53:16.408Z,5.97
2023-02-11T22:55:43.470Z,6.15
2023-02-11T22:58:10.304Z,5.57
2023-02-11T23:00:41.208Z,4.28
2023-02-11T23:03:10.333Z,5.15
2023-02-11T23:05:41.311Z,6.15
2023-02-11T23:08:09.961Z,4.88
2023-02-11T23:10:37.780Z,4.97
2023-02-11T23:13:06.140Z,5.75
2023-02-11T23:15:33.599Z,5.75
2023-02-11T23:18:00.520Z,4.00
2023-02-11T23:20:27.291Z,4.47
2023-02-11T23:22:54.257Z,4.40
2023-02-11T23:25:20.895Z,4.60
2023-02-11T23:27:47.901Z,4.15
2023-02-11T23:30:14.854Z,2.85
2023-02-11T23:32:41.476Z,4.28
2023-02-11T23:35:08.281Z,3.05
2023-02-11T23:37:34.861Z,3.75
2023-02-11T23:40:01.410Z,2.72
2023-02-11T23:42:29.261Z,3.38
2023-02-11T23:44:55.812Z,2.85
2023-02-11T23:47:22.432Z,2.95
2023-02-11T23:49:48.997Z,2.85
2023-02-11T23:52:15.729Z,2.00
2023-02-11T23:54:43.235Z,3.10
2023-02-11T23:57:10.031Z,3.50
2023-02-11T23:59:36.741Z,3.65
